Guthrie, North Carolina
Current Conditions -  °F | °C
As of 12:54 PM on Sunday 25 Jan 2015 (Local Time) from KGSO Reporting Station
Few Clouds Few Clouds  
Wind Chill: 52°   Ceiling: Unl
Heat Index: 52°   Visibility: 10mi
Dew Point: 31°   Wind: 12mph
Humidity: 45%   Direction: 190°S
Pressure: 29.85"   Gusts: NA
Location:  36.1188°N, 80.075°W
Report Text: KGSO 251754Z 19010KT 10SM FEW250 11/M01 A2985 RMK AO2 SLP110 T01111006 10111 21028 58016
Loading
Personal Weather Stations






























Interactive Weather Map New forecast layout! Learn more

10-Day Weather Forecast

Advertisements
Track Severe Weather on mobile